createdAt,value
2018-12-20T00:01:16.077Z,100.00
2018-12-20T00:03:44.428Z,100.00
2018-12-20T00:06:12.870Z,100.00
2018-12-20T00:08:41.270Z,100.00
2018-12-20T00:11:09.692Z,100.00
2018-12-20T00:13:38.152Z,100.00
2018-12-20T00:16:06.619Z,100.00
2018-12-20T00:18:34.964Z,100.00
2018-12-20T00:21:03.494Z,100.00
2018-12-20T00:23:32.046Z,100.00
2018-12-20T00:26:00.925Z,100.00
2018-12-20T00:28:29.405Z,100.00
2018-12-20T00:30:57.989Z,100.00
2018-12-20T00:33:26.514Z,100.00
2018-12-20T00:35:54.988Z,100.00
2018-12-20T00:38:23.374Z,100.00
2018-12-20T00:40:51.736Z,100.00
2018-12-20T00:43:20.140Z,100.00
2018-12-20T00:45:48.460Z,100.00
2018-12-20T00:48:16.811Z,100.00
2018-12-20T00:50:45.181Z,100.00
2018-12-20T00:53:13.587Z,100.00
2018-12-20T00:55:42.016Z,100.00
2018-12-20T00:58:10.487Z,100.00
2018-12-20T01:00:38.864Z,100.00
2018-12-20T01:03:07.387Z,100.00
2018-12-20T01:05:35.990Z,99.99
2018-12-20T01:08:04.504Z,100.00
2018-12-20T01:10:33.116Z,100.00
2018-12-20T01:13:01.543Z,100.00
2018-12-20T01:15:30.037Z,100.00
2018-12-20T01:17:58.532Z,99.33
2018-12-20T01:20:27.006Z,99.34
2018-12-20T01:22:55.459Z,100.00
2018-12-20T01:25:23.881Z,100.00
2018-12-20T01:27:52.370Z,100.00
2018-12-20T01:30:20.914Z,100.00
2018-12-20T01:32:49.355Z,100.00
2018-12-20T01:35:17.822Z,100.00
2018-12-20T01:37:46.400Z,100.00
2018-12-20T01:40:14.744Z,100.00
2018-12-20T01:42:43.313Z,100.00
2018-12-20T01:45:11.688Z,100.00
2018-12-20T01:47:40.104Z,100.00
2018-12-20T01:50:08.761Z,100.00
2018-12-20T01:52:37.315Z,100.00
2018-12-20T01:55:05.922Z,100.00
2018-12-20T01:57:34.462Z,100.00
2018-12-20T02:00:05.241Z,100.00
2018-12-20T02:02:33.634Z,100.00
2018-12-20T02:05:02.014Z,100.00
2018-12-20T02:07:30.496Z,100.00
2018-12-20T02:09:59.137Z,100.00
2018-12-20T02:12:27.586Z,100.00
2018-12-20T02:15:01.636Z,100.00
2018-12-20T02:17:26.581Z,100.00
2018-12-20T02:19:55.212Z,100.00
2018-12-20T02:22:23.890Z,100.00
2018-12-20T02:24:52.240Z,100.00
2018-12-20T02:27:20.779Z,100.00
2018-12-20T02:29:49.146Z,100.00
2018-12-20T02:32:17.522Z,100.00
2018-12-20T02:34:45.924Z,100.00
2018-12-20T02:37:14.432Z,100.00
2018-12-20T02:39:43.056Z,100.00
2018-12-20T02:42:11.659Z,100.00
2018-12-20T02:44:40.020Z,100.00
2018-12-20T02:47:08.421Z,100.00
2018-12-20T02:49:36.775Z,100.00
2018-12-20T02:52:05.189Z,100.00
2018-12-20T02:54:33.964Z,100.00
2018-12-20T02:57:02.410Z,100.00
2018-12-20T02:59:30.845Z,100.00
2018-12-20T03:01:59.324Z,100.00
2018-12-20T03:04:27.763Z,100.00
2018-12-20T03:06:56.485Z,100.00
2018-12-20T03:09:24.969Z,100.00
2018-12-20T03:11:53.359Z,100.00
2018-12-20T03:14:21.870Z,100.00
2018-12-20T03:16:50.439Z,100.00
2018-12-20T03:19:18.880Z,100.00
2018-12-20T03:21:47.517Z,100.00
2018-12-20T03:24:16.070Z,100.00
2018-12-20T03:26:44.608Z,100.00
2018-12-20T03:29:12.967Z,100.00
2018-12-20T03:31:41.429Z,100.00
2018-12-20T03:34:09.764Z,100.00
2018-12-20T03:36:38.177Z,100.00
2018-12-20T03:39:07.539Z,100.00
2018-12-20T03:41:36.036Z,100.00
2018-12-20T03:44:04.873Z,100.00
2018-12-20T03:46:34.224Z,100.00
2018-12-20T03:49:03.063Z,100.00
2018-12-20T03:51:31.765Z,100.00
2018-12-20T03:54:00.304Z,100.00
2018-12-20T03:56:29.446Z,100.00
2018-12-20T03:58:57.888Z,100.00
2018-12-20T04:01:26.492Z,100.00
2018-12-20T04:03:54.879Z,100.00
2018-12-20T04:06:23.359Z,100.00
2018-12-20T04:08:51.873Z,100.00
2018-12-20T04:11:20.370Z,100.00
2018-12-20T04:13:48.791Z,100.00
2018-12-20T04:16:17.416Z,100.00
2018-12-20T04:18:46.114Z,100.00
2018-12-20T04:21:14.577Z,100.00
2018-12-20T04:23:43.429Z,100.00
2018-12-20T04:26:11.885Z,100.00
2018-12-20T04:28:40.288Z,100.00
2018-12-20T04:31:08.617Z,100.00
2018-12-20T04:33:36.996Z,100.00
2018-12-20T04:36:05.599Z,100.00
2018-12-20T04:38:34.147Z,100.00
2018-12-20T04:41:02.701Z,100.00
2018-12-20T04:43:31.179Z,100.00
2018-12-20T04:45:59.581Z,100.00
2018-12-20T04:48:28.267Z,100.00
2018-12-20T04:50:56.717Z,100.00
2018-12-20T04:53:25.356Z,100.00
2018-12-20T04:55:54.002Z,100.00
2018-12-20T04:58:22.392Z,100.00
2018-12-20T05:00:50.732Z,100.00
2018-12-20T05:03:19.337Z,100.00
2018-12-20T05:05:47.699Z,100.00
2018-12-20T05:08:16.223Z,100.00
2018-12-20T05:10:45.377Z,100.00
2018-12-20T05:13:13.808Z,100.00
2018-12-20T05:15:42.298Z,100.00
2018-12-20T05:18:10.763Z,100.00
2018-12-20T05:20:39.195Z,100.00
2018-12-20T05:23:07.631Z,100.00
2018-12-20T05:25:35.962Z,100.00
2018-12-20T05:28:04.287Z,100.00
2018-12-20T05:30:32.697Z,100.00
2018-12-20T05:33:01.092Z,100.00
2018-12-20T05:35:29.452Z,100.00
2018-12-20T05:37:58.033Z,100.00
2018-12-20T05:40:26.595Z,100.00
2018-12-20T05:42:55.074Z,100.00
2018-12-20T05:45:23.522Z,100.00
2018-12-20T05:47:52.002Z,100.00
2018-12-20T05:50:20.471Z,100.00
2018-12-20T05:52:48.835Z,100.00
2018-12-20T05:55:17.627Z,100.00
2018-12-20T05:57:46.892Z,100.00
2018-12-20T06:00:15.451Z,100.00
2018-12-20T06:02:44.126Z,100.00
2018-12-20T06:05:12.533Z,100.00
2018-12-20T06:07:41.001Z,100.00
2018-12-20T06:10:09.499Z,100.00
2018-12-20T06:12:37.911Z,100.00
2018-12-20T06:15:07.345Z,100.00
2018-12-20T06:17:35.996Z,100.00
2018-12-20T06:20:05.620Z,100.00
2018-12-20T06:22:33.988Z,100.00
2018-12-20T06:25:02.344Z,100.00
2018-12-20T06:27:30.747Z,100.00
2018-12-20T06:29:59.092Z,100.00
2018-12-20T06:32:27.461Z,100.00
2018-12-20T06:34:55.787Z,100.00
2018-12-20T06:37:24.152Z,100.00
2018-12-20T06:39:52.497Z,100.00
2018-12-20T06:42:20.829Z,100.00
2018-12-20T06:44:49.149Z,100.00
2018-12-20T06:47:17.582Z,100.00
2018-12-20T06:49:45.927Z,100.00
2018-12-20T06:52:14.457Z,100.00
2018-12-20T06:54:42.808Z,100.00
2018-12-20T06:57:11.252Z,100.00
2018-12-20T06:59:39.592Z,100.00
2018-12-20T07:02:07.949Z,100.00
2018-12-20T07:04:36.284Z,100.00
2018-12-20T07:07:04.730Z,100.00
2018-12-20T07:09:33.123Z,100.00
2018-12-20T07:12:01.467Z,100.00
2018-12-20T07:14:29.807Z,100.00
2018-12-20T07:16:58.138Z,100.00
2018-12-20T07:19:27.312Z,100.00
2018-12-20T07:21:55.687Z,100.00
2018-12-20T07:24:24.031Z,100.00
2018-12-20T07:26:52.382Z,100.00
2018-12-20T07:29:20.786Z,100.00
2018-12-20T07:31:49.162Z,100.00
2018-12-20T07:34:17.496Z,100.00
2018-12-20T07:36:45.828Z,100.00
2018-12-20T07:39:14.175Z,99.77
2018-12-20T07:41:42.541Z,100.00
2018-12-20T07:44:11.023Z,100.00
2018-12-20T07:46:39.445Z,98.52
2018-12-20T07:49:07.926Z,99.02
2018-12-20T07:51:36.264Z,97.98
2018-12-20T07:54:04.743Z,98.31
2018-12-20T07:56:33.088Z,97.20
2018-12-20T07:59:01.413Z,95.75
2018-12-20T08:01:29.768Z,96.15
2018-12-20T08:03:58.117Z,97.88
2018-12-20T08:06:26.463Z,96.90
2018-12-20T08:08:54.804Z,97.14
2018-12-20T08:11:23.181Z,97.48
2018-12-20T08:13:51.507Z,96.42
2018-12-20T08:16:19.901Z,95.86
2018-12-20T08:18:48.442Z,96.41
2018-12-20T08:21:16.923Z,96.04
2018-12-20T08:23:45.257Z,94.61
2018-12-20T08:26:13.602Z,94.95
2018-12-20T08:28:41.932Z,95.22
2018-12-20T08:31:10.315Z,93.66
2018-12-20T08:33:38.676Z,94.84
2018-12-20T08:36:07.023Z,95.53
2018-12-20T08:38:35.349Z,94.08
2018-12-20T08:41:03.724Z,94.15
2018-12-20T08:43:32.085Z,94.84
2018-12-20T08:46:00.413Z,94.32
2018-12-20T08:48:29.084Z,93.94
2018-12-20T08:50:57.406Z,94.01
2018-12-20T08:53:25.731Z,93.94
2018-12-20T08:55:54.062Z,92.55
2018-12-20T08:58:22.427Z,93.89
2018-12-20T09:00:50.743Z,95.28
2018-12-20T09:03:19.150Z,94.54
2018-12-20T09:05:47.474Z,95.09
2018-12-20T09:08:15.812Z,94.07
2018-12-20T09:10:44.155Z,92.18
2018-12-20T09:13:12.502Z,93.02
2018-12-20T09:15:40.894Z,93.49
2018-12-20T09:18:09.311Z,94.26
2018-12-20T09:20:37.627Z,94.83
2018-12-20T09:23:06.380Z,93.95
2018-12-20T09:25:34.710Z,93.09
2018-12-20T09:28:03.101Z,93.28
2018-12-20T09:30:31.452Z,92.27
2018-12-20T09:32:59.824Z,91.77
2018-12-20T09:35:28.182Z,90.52
2018-12-20T09:37:56.501Z,92.45
2018-12-20T09:40:24.915Z,90.75
2018-12-20T09:42:53.280Z,90.95
2018-12-20T09:45:21.603Z,91.45
2018-12-20T09:47:53.584Z,92.12
2018-12-20T09:50:21.939Z,91.78
2018-12-20T09:52:50.270Z,92.43
2018-12-20T09:55:18.604Z,93.34
2018-12-20T09:57:46.953Z,93.67
2018-12-20T10:00:15.428Z,94.03
2018-12-20T10:02:43.843Z,95.19
2018-12-20T10:05:12.357Z,94.18
2018-12-20T10:07:40.761Z,94.95
2018-12-20T10:10:09.481Z,94.88
2018-12-20T10:12:37.849Z,94.13
2018-12-20T10:15:07.368Z,93.18
2018-12-20T10:17:35.702Z,94.48
2018-12-20T10:20:05.415Z,95.27
2018-12-20T10:22:34.069Z,93.58
2018-12-20T10:25:02.400Z,93.88
2018-12-20T10:27:31.535Z,91.91
2018-12-20T10:30:00.279Z,91.50
2018-12-20T10:32:28.621Z,91.79
2018-12-20T10:34:57.073Z,91.66
2018-12-20T10:37:25.432Z,92.01
2018-12-20T10:39:53.765Z,91.54
2018-12-20T10:42:22.070Z,91.67
2018-12-20T10:44:50.390Z,91.52
2018-12-20T10:47:28.765Z,90.18
2018-12-20T10:49:55.123Z,89.81
2018-12-20T10:52:23.469Z,88.82
2018-12-20T10:54:51.826Z,87.71
2018-12-20T10:57:21.404Z,89.70
2018-12-20T10:59:49.946Z,90.20
2018-12-20T11:02:23.852Z,89.08
2018-12-20T11:04:59.496Z,89.61
2018-12-20T11:07:33.303Z,88.78
2018-12-20T11:10:07.331Z,88.97
2018-12-20T11:12:41.083Z,89.94
2018-12-20T11:15:09.551Z,90.20
2018-12-20T11:17:37.943Z,89.81
2018-12-20T11:20:07.092Z,89.95
2018-12-20T11:22:35.824Z,89.12
2018-12-20T11:25:05.582Z,87.64
2018-12-20T11:27:33.947Z,87.37
2018-12-20T11:30:02.273Z,87.34
2018-12-20T11:32:30.649Z,86.55
2018-12-20T11:34:59.020Z,85.76
2018-12-20T11:37:27.459Z,84.83
2018-12-20T11:39:59.817Z,85.90
2018-12-20T11:42:26.172Z,86.19
2018-12-20T11:44:54.511Z,86.43
2018-12-20T11:47:28.112Z,85.62
2018-12-20T11:49:56.440Z,85.30
2018-12-20T11:52:25.785Z,85.78
2018-12-20T11:57:28.919Z,85.78
2018-12-20T11:59:57.246Z,83.64
2018-12-20T12:02:25.596Z,82.96
2018-12-20T12:04:53.975Z,83.23
2018-12-20T12:07:22.332Z,82.72
2018-12-20T12:09:50.732Z,83.06
2018-12-20T12:12:19.087Z,82.90
2018-12-20T12:14:47.441Z,82.80
2018-12-20T12:17:15.765Z,83.81
2018-12-20T12:19:44.098Z,82.07
2018-12-20T12:22:12.420Z,82.68
2018-12-20T12:24:40.755Z,82.51
2018-12-20T12:27:09.172Z,82.57
2018-12-20T12:29:37.514Z,83.32
2018-12-20T12:32:05.885Z,82.44
2018-12-20T12:34:34.206Z,82.55
2018-12-20T12:37:02.555Z,82.86
2018-12-20T12:39:30.891Z,82.82
2018-12-20T12:41:59.298Z,83.12
2018-12-20T12:44:27.647Z,82.50
2018-12-20T12:46:55.991Z,82.45
2018-12-20T12:49:24.443Z,83.61
2018-12-20T12:51:53.475Z,81.92
2018-12-20T12:54:22.475Z,81.21
2018-12-20T12:56:50.849Z,82.79
2018-12-20T12:59:19.191Z,83.07
2018-12-20T13:01:47.647Z,82.97
2018-12-20T13:04:16.102Z,83.16
2018-12-20T13:06:44.451Z,80.77
2018-12-20T13:09:12.828Z,81.72
2018-12-20T13:11:41.304Z,81.48
2018-12-20T13:14:09.694Z,82.31
2018-12-20T13:16:38.153Z,82.46
2018-12-20T13:19:06.518Z,82.15
2018-12-20T13:21:34.891Z,82.15
2018-12-20T13:24:03.624Z,80.81
2018-12-20T13:26:31.953Z,81.49
2018-12-20T13:29:00.494Z,82.37
2018-12-20T13:31:28.899Z,82.10
2018-12-20T13:33:57.245Z,81.47
2018-12-20T13:36:25.705Z,80.53
2018-12-20T13:38:54.045Z,80.07
2018-12-20T13:41:22.384Z,79.14
2018-12-20T13:43:50.854Z,80.58
2018-12-20T13:46:19.206Z,80.63
2018-12-20T13:48:47.667Z,80.88
2018-12-20T13:51:16.035Z,81.13
2018-12-20T13:53:44.448Z,80.78
2018-12-20T13:56:12.788Z,80.90
2018-12-20T13:58:41.138Z,81.02
2018-12-20T14:01:09.590Z,80.41
2018-12-20T14:03:38.064Z,80.26
2018-12-20T14:06:06.484Z,80.38
2018-12-20T14:08:35.062Z,81.54
2018-12-20T14:11:03.454Z,83.26
2018-12-20T14:13:31.811Z,84.75
2018-12-20T14:16:01.203Z,87.70
2018-12-20T14:18:31.180Z,89.26
2018-12-20T14:20:59.802Z,89.63
2018-12-20T14:23:28.162Z,92.67
2018-12-20T14:25:56.522Z,95.60
2018-12-20T14:28:24.955Z,98.02
2018-12-20T14:30:53.450Z,99.88
2018-12-20T14:33:22.456Z,98.08
2018-12-20T14:35:50.881Z,100.00
2018-12-20T14:38:19.292Z,100.00
2018-12-20T14:40:47.682Z,100.00
2018-12-20T14:43:16.039Z,100.00
2018-12-20T14:45:44.373Z,100.00
2018-12-20T14:48:14.763Z,100.00
2018-12-20T14:50:43.153Z,100.00
2018-12-20T14:53:11.633Z,100.00
2018-12-20T14:55:40.040Z,100.00
2018-12-20T14:58:08.401Z,100.00
2018-12-20T15:00:38.186Z,100.00
2018-12-20T15:03:06.526Z,100.00
2018-12-20T15:05:34.921Z,100.00
2018-12-20T15:08:03.271Z,100.00
2018-12-20T15:10:31.812Z,99.86
2018-12-20T15:13:00.252Z,99.39
2018-12-20T15:15:28.710Z,99.00
2018-12-20T15:17:57.275Z,98.99
2018-12-20T15:20:25.631Z,97.90
2018-12-20T15:22:54.478Z,99.79
2018-12-20T15:25:22.844Z,97.53
2018-12-20T15:27:51.222Z,98.31
2018-12-20T15:30:20.494Z,96.21
2018-12-20T15:32:48.875Z,96.83
2018-12-20T15:35:17.223Z,96.08
2018-12-20T15:37:45.918Z,97.09
2018-12-20T15:40:14.331Z,94.32
2018-12-20T15:42:42.891Z,94.97
2018-12-20T15:45:11.226Z,95.51
2018-12-20T15:47:39.556Z,95.48
2018-12-20T15:50:08.495Z,94.01
2018-12-20T15:52:36.856Z,96.08
2018-12-20T15:55:06.083Z,93.65
2018-12-20T15:57:35.449Z,94.12
2018-12-20T16:00:06.092Z,93.81
2018-12-20T16:02:35.500Z,94.03
2018-12-20T16:05:04.651Z,93.49
2018-12-20T16:07:32.993Z,94.33
2018-12-20T16:10:01.450Z,93.91
2018-12-20T16:12:30.036Z,94.29
2018-12-20T16:14:58.411Z,93.41
2018-12-20T16:17:26.802Z,94.43
2018-12-20T16:19:55.186Z,92.72
2018-12-20T16:22:23.555Z,93.10
2018-12-20T16:24:53.171Z,94.19
2018-12-20T16:27:21.515Z,92.90
2018-12-20T16:29:49.877Z,94.56
2018-12-20T16:32:21.534Z,94.30
2018-12-20T16:34:50.206Z,92.81
2018-12-20T16:37:18.583Z,93.70
2018-12-20T16:39:46.936Z,92.98
2018-12-20T16:42:15.299Z,92.68
2018-12-20T16:44:43.694Z,92.92
2018-12-20T16:47:12.079Z,92.94
2018-12-20T16:49:40.595Z,95.26
2018-12-20T16:52:08.989Z,96.80
2018-12-20T16:54:38.221Z,94.67
2018-12-20T16:57:06.654Z,96.82
2018-12-20T16:59:36.054Z,95.72
2018-12-20T17:02:04.410Z,94.53
2018-12-20T17:04:32.826Z,96.78
2018-12-20T17:07:01.185Z,98.28
2018-12-20T17:09:31.852Z,98.69
2018-12-20T17:12:00.279Z,99.26
2018-12-20T17:14:28.799Z,98.10
2018-12-20T17:16:57.911Z,98.12
2018-12-20T17:19:26.347Z,97.54
2018-12-20T17:21:54.908Z,96.69
2018-12-20T17:24:23.275Z,96.25
2018-12-20T17:26:51.831Z,96.48
2018-12-20T17:29:20.256Z,96.76
2018-12-20T17:31:48.697Z,95.22
2018-12-20T17:34:17.051Z,96.83
2018-12-20T17:36:45.430Z,97.37
2018-12-20T17:39:14.066Z,97.10
2018-12-20T17:41:44.279Z,98.29
2018-12-20T17:44:12.642Z,100.00
2018-12-20T17:46:40.988Z,100.00
2018-12-20T17:49:09.422Z,100.00
2018-12-20T17:51:37.807Z,100.00
2018-12-20T17:54:06.142Z,100.00
2018-12-20T17:56:36.719Z,100.00
2018-12-20T17:59:05.803Z,100.00
2018-12-20T18:01:34.151Z,100.00
2018-12-20T18:04:02.534Z,100.00
2018-12-20T18:06:30.978Z,100.00
2018-12-20T18:08:59.383Z,100.00
2018-12-20T18:11:28.036Z,100.00
2018-12-20T18:13:56.384Z,100.00
2018-12-20T18:16:24.794Z,100.00
2018-12-20T18:18:53.165Z,100.00
2018-12-20T18:21:21.572Z,100.00
2018-12-20T18:23:50.397Z,100.00
2018-12-20T18:26:18.924Z,100.00
2018-12-20T18:28:47.510Z,100.00
2018-12-20T18:31:16.098Z,100.00
2018-12-20T18:33:44.504Z,100.00
2018-12-20T18:36:14.343Z,100.00
2018-12-20T18:38:42.701Z,100.00
2018-12-20T18:41:11.068Z,100.00
2018-12-20T18:43:39.457Z,100.00
2018-12-20T18:46:08.350Z,100.00
2018-12-20T18:48:36.785Z,100.00
2018-12-20T18:51:05.428Z,100.00
2018-12-20T18:53:33.828Z,100.00
2018-12-20T18:56:02.165Z,100.00
2018-12-20T18:58:30.631Z,100.00
2018-12-20T19:00:59.902Z,100.00
2018-12-20T19:03:30.229Z,100.00
2018-12-20T19:06:01.505Z,100.00
2018-12-20T19:08:30.499Z,100.00
2018-12-20T19:11:00.858Z,100.00
2018-12-20T19:13:32.884Z,100.00
2018-12-20T19:16:02.998Z,100.00
2018-12-20T19:18:31.395Z,100.00
2018-12-20T19:21:01.302Z,100.00
2018-12-20T19:23:31.250Z,100.00
2018-12-20T19:26:01.056Z,100.00
2018-12-20T19:28:36.316Z,100.00
2018-12-20T19:31:04.710Z,100.00
2018-12-20T19:33:33.047Z,100.00
2018-12-20T19:36:01.630Z,100.00
2018-12-20T19:38:30.229Z,100.00
2018-12-20T19:40:59.547Z,100.00
2018-12-20T19:43:28.003Z,100.00
2018-12-20T19:45:56.553Z,100.00
2018-12-20T19:48:24.933Z,100.00
2018-12-20T19:50:53.308Z,100.00
2018-12-20T19:53:21.949Z,100.00
2018-12-20T19:55:50.724Z,100.00
2018-12-20T19:58:19.348Z,100.00
2018-12-20T20:00:47.733Z,100.00
2018-12-20T20:03:16.101Z,100.00
2018-12-20T20:05:44.531Z,100.00
2018-12-20T20:08:13.075Z,100.00
2018-12-20T20:10:43.285Z,100.00
2018-12-20T20:13:19.000Z,100.00
2018-12-20T20:15:42.017Z,100.00
2018-12-20T20:18:10.490Z,100.00
2018-12-20T20:20:40.954Z,100.00
2018-12-20T20:23:10.291Z,100.00
2018-12-20T20:25:39.368Z,100.00
2018-12-20T20:28:08.036Z,100.00
2018-12-20T20:30:36.530Z,100.00
2018-12-20T20:33:05.956Z,100.00
2018-12-20T20:35:37.134Z,100.00
2018-12-20T20:38:06.570Z,100.00
2018-12-20T20:40:35.231Z,100.00
2018-12-20T20:43:03.640Z,100.00
2018-12-20T20:45:33.281Z,100.00
2018-12-20T20:48:02.005Z,100.00
2018-12-20T20:50:31.302Z,100.00
2018-12-20T20:52:59.761Z,100.00
2018-12-20T20:55:28.275Z,100.00
2018-12-20T20:57:59.817Z,100.00
2018-12-20T21:00:28.221Z,100.00
2018-12-20T21:02:56.662Z,100.00
2018-12-20T21:05:25.315Z,100.00
2018-12-20T21:07:53.695Z,100.00
2018-12-20T21:10:22.194Z,100.00
2018-12-20T21:12:50.755Z,100.00
2018-12-20T21:15:19.163Z,100.00
2018-12-20T21:17:47.513Z,100.00
2018-12-20T21:20:16.768Z,100.00
2018-12-20T21:22:45.140Z,100.00
2018-12-20T21:25:13.514Z,100.00
2018-12-20T21:27:42.351Z,100.00
2018-12-20T21:30:11.129Z,100.00
2018-12-20T21:32:39.580Z,100.00
2018-12-20T21:35:08.076Z,100.00
2018-12-20T21:37:36.551Z,100.00
2018-12-20T21:40:06.242Z,100.00
2018-12-20T21:42:34.759Z,99.98
2018-12-20T21:45:03.204Z,100.00
2018-12-20T21:47:31.844Z,99.08
2018-12-20T21:50:00.261Z,98.75
2018-12-20T21:52:28.608Z,99.59
2018-12-20T21:54:56.952Z,98.46
2018-12-20T21:57:25.329Z,97.51
2018-12-20T22:00:01.017Z,98.46
2018-12-20T22:02:24.083Z,96.88
2018-12-20T22:04:52.453Z,96.98
2018-12-20T22:07:20.945Z,96.17
2018-12-20T22:09:49.294Z,96.15
2018-12-20T22:12:17.664Z,97.09
2018-12-20T22:14:46.013Z,95.58
2018-12-20T22:17:14.429Z,95.71
2018-12-20T22:19:42.856Z,95.53
2018-12-20T22:22:11.254Z,96.59
2018-12-20T22:24:39.603Z,96.37
2018-12-20T22:27:08.008Z,96.25
2018-12-20T22:29:36.378Z,94.95
2018-12-20T22:32:04.725Z,95.32
2018-12-20T22:34:33.156Z,94.57
2018-12-20T22:37:01.645Z,95.03
2018-12-20T22:39:29.989Z,94.19
2018-12-20T22:41:58.653Z,95.44
2018-12-20T22:44:26.984Z,96.08
2018-12-20T22:46:55.336Z,95.08
2018-12-20T22:49:23.702Z,94.87
2018-12-20T22:51:52.043Z,93.89
2018-12-20T22:54:20.546Z,94.98
2018-12-20T22:56:48.903Z,93.62
2018-12-20T22:59:17.236Z,94.19
2018-12-20T23:01:45.635Z,94.02
2018-12-20T23:04:13.963Z,93.70
2018-12-20T23:06:42.504Z,93.68
2018-12-20T23:09:10.846Z,93.86
2018-12-20T23:11:39.183Z,93.74
2018-12-20T23:14:07.532Z,92.77
2018-12-20T23:16:35.847Z,93.37
2018-12-20T23:19:04.293Z,93.27
2018-12-20T23:21:32.648Z,94.45
2018-12-20T23:24:00.978Z,93.49
2018-12-20T23:26:29.348Z,92.53
2018-12-20T23:28:57.666Z,92.68
2018-12-20T23:31:26.018Z,91.95
2018-12-20T23:33:54.372Z,93.57
2018-12-20T23:36:22.893Z,92.12
2018-12-20T23:38:51.326Z,91.53
2018-12-20T23:41:19.703Z,92.06
2018-12-20T23:43:48.069Z,92.50
2018-12-20T23:46:16.423Z,92.79
2018-12-20T23:48:44.763Z,92.12
2018-12-20T23:51:13.938Z,92.00
2018-12-20T23:53:42.482Z,92.19
2018-12-20T23:56:10.911Z,92.51
2018-12-20T23:58:39.252Z,91.44
